Time;durP1;ratioP1;P1;durP2;ratioP2;P2;SDS_P1;SDS_P2;PMS_P1;PMS_P2;Temp;Humidity;BMP_temperature;BMP_pressure;BME280_temperature;BME280_humidity;BME280_pressure;Samples;Min_cycle;Max_cycle;Signal;HPM_P1;HPM_P2
2021/06/27 00:00:23;;;;;;;;;23.33;21.67;;;;;19.58;71.65;100897.63;5100761;27;45371;-78
2021/06/27 00:02:49;;;;;;;;;24.67;21.67;;;;;19.41;71.45;100882.13;5082625;27;47758;-78
2021/06/27 00:05:18;;;;;;;;;23.00;21.67;;;;;19.51;71.92;100917.41;5100665;27;45342;-78
2021/06/27 00:07:43;;;;;;;;;22.00;21.00;;;;;19.50;71.30;100915.78;5099291;27;45435;-78
2021/06/27 00:10:12;;;;;;;;;17.50;17.50;;;;;19.51;71.59;100920.13;5100411;27;45423;-78
2021/06/27 00:12:39;;;;;;;;;20.00;18.67;;;;;19.50;71.60;100926.56;5100623;27;46246;-78
2021/06/27 00:15:17;;;;;;;;;25.67;22.00;;;;;19.50;71.57;100933.81;5100288;27;45444;-78
2021/06/27 00:17:44;;;;;;;;;22.00;21.67;;;;;19.48;71.99;100936.75;5100546;27;45318;-78
2021/06/27 00:20:13;;;;;;;;;20.00;20.00;;;;;19.47;71.91;100940.50;5100379;27;45440;-78
2021/06/27 00:22:38;;;;;;;;;21.00;19.00;;;;;19.48;71.99;100934.03;5099027;27;47090;-78
2021/06/27 00:25:07;;;;;;;;;19.00;19.00;;;;;19.48;72.10;100946.72;5098794;27;45402;-78
2021/06/27 00:27:32;;;;;;;;;22.67;20.33;;;;;19.43;72.28;100942.81;5100434;27;45369;-79
2021/06/27 00:29:57;;;;;;;;;22.67;20.33;;;;;19.42;72.51;100953.81;5094334;27;45355;-78
2021/06/27 00:32:23;;;;;;;;;20.33;19.00;;;;;19.38;72.09;100955.34;5078447;28;47275;-78
2021/06/27 00:34:48;;;;;;;;;18.67;17.00;;;;;19.39;72.59;100959.66;5079817;27;45350;-80
2021/06/27 00:37:13;;;;;;;;;22.33;22.33;;;;;19.33;72.30;100958.72;5095388;27;45350;-79
2021/06/27 00:39:39;;;;;;;;;21.33;20.33;;;;;19.29;72.33;100969.13;5077561;28;47040;-79
2021/06/27 00:42:04;;;;;;;;;20.67;18.67;;;;;19.23;72.69;100963.81;5079695;27;45355;-79
2021/06/27 00:44:30;;;;;;;;;24.67;21.67;;;;;19.24;72.45;100957.41;5079769;27;45348;-79
2021/06/27 00:46:55;;;;;;;;;20.33;20.33;;;;;19.21;73.12;100955.16;5078644;28;45326;-78
2021/06/27 00:49:21;;;;;;;;;20.00;20.00;;;;;19.24;73.43;100963.59;5079971;27;45533;-79
2021/06/27 00:51:47;;;;;;;;;22.67;21.00;;;;;19.22;73.58;100957.63;5078033;28;47234;-79
2021/06/27 00:54:13;;;;;;;;;21.33;20.00;;;;;19.20;73.08;100973.19;5095270;27;45388;-79
2021/06/27 00:56:39;;;;;;;;;25.33;23.33;;;;;19.18;73.77;100973.41;5078417;28;45271;-79
2021/06/27 00:59:04;;;;;;;;;26.00;22.00;;;;;19.15;73.35;100963.09;5060223;28;45358;-79
2021/06/27 01:01:30;;;;;;;;;21.67;20.00;;;;;19.13;73.57;100967.88;5059485;28;46070;-79
2021/06/27 01:03:55;;;;;;;;;20.67;20.67;;;;;19.13;73.25;100977.84;5058307;28;45408;-79
2021/06/27 01:06:20;;;;;;;;;25.67;23.67;;;;;19.11;73.35;100971.84;5059239;28;45270;-80
2021/06/27 01:08:46;;;;;;;;;23.00;21.67;;;;;19.06;73.49;100972.50;5076957;28;46833;-81
2021/06/27 01:11:12;;;;;;;;;24.33;23.00;;;;;19.07;73.78;100986.78;5079409;27;45469;-80
2021/06/27 01:13:37;;;;;;;;;17.33;17.33;;;;;19.03;74.02;100997.19;5077692;28;45241;-79
2021/06/27 01:16:03;;;;;;;;;26.33;23.67;;;;;18.97;73.79;100992.72;5079497;27;45270;-80
2021/06/27 01:18:29;;;;;;;;;23.00;23.00;;;;;18.98;74.13;100999.72;5079213;27;45230;-81
2021/06/27 01:20:55;;;;;;;;;17.67;17.00;;;;;18.97;74.49;100995.41;5079055;27;45940;-80
2021/06/27 01:23:20;;;;;;;;;22.00;21.00;;;;;18.95;74.71;100987.56;5079221;27;45279;-82
2021/06/27 01:25:50;;;;;;;;;23.33;18.33;;;;;18.95;74.94;100970.56;5079198;27;45341;-81
2021/06/27 01:28:16;;;;;;;;;22.67;22.67;;;;;18.97;75.03;100963.09;5079139;28;45324;-82
2021/06/27 01:30:42;;;;;;;;;22.33;21.33;;;;;18.99;75.01;100945.66;5090595;27;46317;-81
2021/06/27 01:33:20;;;;;;;;;23.33;21.33;;;;;19.03;75.11;100952.22;5099486;27;45280;-80
2021/06/27 01:35:47;;;;;;;;;24.00;22.00;;;;;19.00;75.12;100941.91;5099425;27;45317;-80
2021/06/27 01:38:14;;;;;;;;;20.33;19.33;;;;;19.06;74.93;100940.16;5099130;27;45316;-79
2021/06/27 01:40:40;;;;;;;;;23.00;22.00;;;;;19.06;75.22;100929.41;5099108;27;46612;-80
2021/06/27 01:43:10;;;;;;;;;23.67;22.67;;;;;19.09;74.91;100914.69;5097855;27;45270;-79
2021/06/27 01:45:38;;;;;;;;;24.67;24.67;;;;;19.05;75.18;100898.13;5099547;27;45300;-80
2021/06/27 01:48:07;;;;;;;;;22.00;21.33;;;;;19.09;75.21;100909.31;5099066;27;45372;-81
2021/06/27 01:50:34;;;;;;;;;25.67;25.00;;;;;19.06;75.00;100899.75;5099414;27;47084;-81
2021/06/27 01:53:01;;;;;;;;;21.67;20.00;;;;;19.07;75.17;100893.34;5084251;27;45863;-81
2021/06/27 01:55:28;;;;;;;;;20.00;19.33;;;;;19.08;75.19;100886.09;5102673;27;45479;-81
2021/06/27 01:57:54;;;;;;;;;26.33;23.33;;;;;19.04;75.30;100873.06;5102537;27;45342;-82
2021/06/27 02:00:21;;;;;;;;;20.67;20.67;;;;;19.01;74.84;100856.56;5101152;27;46999;-81
2021/06/27 02:02:48;;;;;;;;;21.33;21.33;;;;;18.96;75.12;100848.31;5101296;27;45294;-82
2021/06/27 02:05:14;;;;;;;;;22.33;22.33;;;;;18.93;75.25;100855.00;5102804;27;45183;-82
2021/06/27 02:07:40;;;;;;;;;24.00;22.00;;;;;18.91;75.01;100865.16;5102415;27;45239;-81
2021/06/27 02:10:12;;;;;;;;;20.33;20.00;;;;;18.84;75.22;100878.72;5100918;27;48503;-82
2021/06/27 02:12:38;;;;;;;;;25.00;24.67;;;;;18.80;75.61;100881.03;5102419;27;45338;-81
2021/06/27 02:15:05;;;;;;;;;22.00;21.00;;;;;18.75;75.38;100878.22;5102453;27;45507;-82
2021/06/27 02:17:31;;;;;;;;;22.33;22.33;;;;;18.79;75.86;100882.09;5102115;27;46518;-82
2021/06/27 02:19:57;;;;;;;;;21.67;19.33;;;;;18.74;75.78;100883.81;5102292;27;46702;-82
2021/06/27 02:22:23;;;;;;;;;23.00;23.00;;;;;18.77;75.59;100881.47;5102205;27;45405;-81
2021/06/27 02:24:49;;;;;;;;;21.67;20.33;;;;;18.74;75.81;100881.94;5102251;27;45319;-82
2021/06/27 02:27:15;;;;;;;;;23.00;23.00;;;;;18.72;75.73;100862.50;5102156;27;45534;-81
2021/06/27 02:29:40;;;;;;;;;23.00;22.33;;;;;18.71;75.98;100852.78;5098470;27;46258;-82
2021/06/27 02:32:06;;;;;;;;;23.33;20.67;;;;;18.70;76.05;100844.94;5080484;28;45261;-82
2021/06/27 02:34:31;;;;;;;;;21.33;20.67;;;;;18.77;76.05;100838.41;5080338;28;45271;-82
2021/06/27 02:36:58;;;;;;;;;23.67;23.67;;;;;18.78;75.80;100820.41;5081315;27;45263;-83
2021/06/27 02:39:23;;;;;;;;;21.33;19.67;;;;;18.76;76.18;100796.38;5080239;28;46363;-83
2021/06/27 02:41:48;;;;;;;;;21.33;21.00;;;;;18.74;76.13;100784.22;5080342;28;45169;-83
2021/06/27 02:44:14;;;;;;;;;18.67;17.67;;;;;18.75;75.80;100775.91;5080324;28;45511;-83
2021/06/27 02:46:40;;;;;;;;;22.33;20.33;;;;;18.73;75.73;100772.63;5081263;28;45363;-84
2021/06/27 02:49:06;;;;;;;;;23.33;21.00;;;;;18.75;76.10;100772.38;5081352;27;45273;-83
2021/06/27 02:51:31;;;;;;;;;21.67;21.67;;;;;18.72;75.99;100781.75;5081242;27;45428;-83
2021/06/27 02:53:56;;;;;;;;;20.67;20.00;;;;;18.70;75.98;100783.84;5081273;27;45361;-83
2021/06/27 02:56:22;;;;;;;;;21.00;21.00;;;;;18.65;76.23;100775.63;5081269;27;45382;-83
2021/06/27 02:58:48;;;;;;;;;23.33;22.33;;;;;18.67;76.23;100795.88;5081264;27;45463;-82
2021/06/27 03:01:16;;;;;;;;;23.33;21.33;;;;;18.65;76.31;100795.28;5080918;27;45337;-82
2021/06/27 03:03:43;;;;;;;;;25.00;23.67;;;;;18.64;76.22;100806.28;5079839;28;45294;-82
2021/06/27 03:06:10;;;;;;;;;22.00;22.00;;;;;18.60;76.31;100808.63;5080961;28;45547;-82
2021/06/27 03:08:36;;;;;;;;;22.67;22.67;;;;;18.53;76.19;100810.56;5081069;28;46218;-82
2021/06/27 03:11:02;;;;;;;;;22.67;22.33;;;;;18.52;76.65;100801.66;5080778;27;45573;-81
2021/06/27 03:13:27;;;;;;;;;25.00;25.00;;;;;18.50;76.53;100801.06;5081142;27;45367;-82
2021/06/27 03:15:53;;;;;;;;;26.33;24.00;;;;;18.47;76.25;100801.50;5080950;27;45471;-82
2021/06/27 03:18:19;;;;;;;;;22.67;22.00;;;;;18.47;76.20;100811.47;5080824;27;46261;-82
2021/06/27 03:20:45;;;;;;;;;24.00;20.33;;;;;18.45;76.83;100809.00;5079632;28;45380;-82
2021/06/27 03:23:12;;;;;;;;;22.67;21.67;;;;;18.45;76.85;100787.47;5079608;28;45434;-83
2021/06/27 03:25:39;;;;;;;;;22.00;21.00;;;;;18.49;76.61;100787.84;5068551;27;45336;-81
2021/06/27 03:28:04;;;;;;;;;22.33;20.67;;;;;18.50;76.42;100790.28;5060363;28;45277;-81
2021/06/27 03:30:30;;;;;;;;;26.67;23.00;;;;;18.50;76.38;100784.91;5080509;27;45471;-82
2021/06/27 03:32:56;;;;;;;;;20.00;20.00;;;;;18.54;76.71;100786.13;5101363;27;45449;-81
2021/06/27 03:35:22;;;;;;;;;26.67;25.00;;;;;18.59;76.70;100784.63;5093007;27;45419;-82
2021/06/27 03:40:33;;;;;;;;;25.33;23.33;;;;;18.55;76.90;100795.00;5068730;27;45534;-81
2021/06/27 03:43:01;;;;;;;;;23.00;21.33;;;;;18.48;76.28;100776.25;5080734;27;45449;-82
2021/06/27 03:45:26;;;;;;;;;23.67;20.33;;;;;18.54;76.15;100791.50;5080591;27;45487;-81
2021/06/27 03:47:52;;;;;;;;;19.33;17.67;;;;;18.50;76.40;100795.69;5080266;27;46011;-82
2021/06/27 03:50:18;;;;;;;;;20.33;17.67;;;;;18.46;76.85;100793.69;5080531;27;45168;-82
2021/06/27 03:52:44;;;;;;;;;22.67;22.67;;;;;18.40;76.64;100796.22;5080438;27;45285;-80
2021/06/27 03:55:11;;;;;;;;;20.67;20.67;;;;;18.43;76.89;100794.94;5080185;27;45279;-82
2021/06/27 03:57:36;;;;;;;;;18.67;18.67;;;;;18.42;76.43;100783.38;5078890;28;47209;-81
2021/06/27 04:00:05;;;;;;;;;20.33;17.33;;;;;18.45;76.82;100779.41;5078812;28;45511;-81
2021/06/27 04:02:30;;;;;;;;;24.67;20.00;;;;;18.49;77.16;100787.84;5080356;27;45168;-82
2021/06/27 04:04:56;;;;;;;;;25.33;25.00;;;;;18.50;76.91;100793.00;5095883;27;46196;-81
2021/06/27 04:07:21;;;;;;;;;21.33;20.33;;;;;18.43;76.68;100778.78;5080098;27;46045;-81
2021/06/27 04:09:46;;;;;;;;;23.67;20.33;;;;;18.51;76.26;100799.19;5080011;27;45310;-81
2021/06/27 04:12:12;;;;;;;;;20.33;18.33;;;;;18.44;76.74;100807.38;5080298;27;45213;-81
2021/06/27 04:14:37;;;;;;;;;22.00;20.67;;;;;18.46;76.83;100809.84;5077688;28;46549;-82
2021/06/27 04:17:03;;;;;;;;;25.00;23.33;;;;;18.46;76.63;100812.53;5078512;28;47463;-80
2021/06/27 04:19:28;;;;;;;;;21.67;21.67;;;;;18.40;76.89;100806.97;5080139;27;45154;-81
2021/06/27 04:21:54;;;;;;;;;23.67;23.00;;;;;18.40;76.72;100817.75;5080080;27;45144;-81
2021/06/27 04:24:19;;;;;;;;;23.00;23.00;;;;;18.39;77.06;100817.97;5079831;27;45685;-82
2021/06/27 04:26:44;;;;;;;;;23.67;21.67;;;;;18.39;76.84;100810.72;5078581;28;46176;-81
2021/06/27 04:29:13;;;;;;;;;21.00;21.00;;;;;18.41;77.04;100816.69;5079868;27;45338;-82
2021/06/27 04:31:40;;;;;;;;;19.67;18.67;;;;;18.50;77.10;100800.25;5099521;27;45406;-81
2021/06/27 04:34:05;;;;;;;;;22.33;21.00;;;;;18.47;76.80;100792.63;5098888;27;46035;-82
2021/06/27 04:36:31;;;;;;;;;25.67;20.67;;;;;18.49;76.88;100779.75;5099942;27;45216;-81
2021/06/27 04:38:57;;;;;;;;;23.33;19.67;;;;;18.50;76.94;100790.28;5100147;27;45189;-80
2021/06/27 04:41:22;;;;;;;;;24.00;22.67;;;;;18.50;77.18;100793.00;5100420;27;45229;-81
2021/06/27 04:43:47;;;;;;;;;20.00;20.00;;;;;18.44;76.95;100782.31;5098883;27;46259;-81
2021/06/27 04:46:13;;;;;;;;;20.67;20.67;;;;;18.50;76.99;100790.28;5100001;27;46062;-81
2021/06/27 04:48:38;;;;;;;;;23.33;21.67;;;;;18.45;77.33;100771.34;5099999;27;45337;-81
2021/06/27 04:51:04;;;;;;;;;21.33;20.67;;;;;18.53;77.02;100768.31;5100280;27;45210;-81
2021/06/27 04:53:29;;;;;;;;;21.67;20.00;;;;;18.59;76.75;100766.63;5100011;27;45518;-81
2021/06/27 04:55:58;;;;;;;;;24.00;23.67;;;;;18.61;77.15;100774.44;5099747;27;45371;-81
2021/06/27 04:58:24;;;;;;;;;18.00;18.00;;;;;18.61;76.58;100769.03;5098471;27;45396;-81
2021/06/27 05:00:49;;;;;;;;;21.00;21.00;;;;;18.58;76.60;100780.28;5099997;27;45232;-81
2021/06/27 05:03:15;;;;;;;;;21.33;21.00;;;;;18.54;76.35;100778.06;5098494;27;47324;-81
2021/06/27 05:05:40;;;;;;;;;21.67;21.33;;;;;18.56;76.92;100783.22;5099786;27;45246;-81
2021/06/27 05:08:06;;;;;;;;;25.00;23.00;;;;;18.57;77.23;100794.78;5099672;27;45286;-81
2021/06/27 05:10:31;;;;;;;;;20.67;20.67;;;;;18.50;76.93;100787.59;5099766;27;45220;-81
2021/06/27 05:12:57;;;;;;;;;21.00;21.00;;;;;18.53;77.04;100794.44;5099818;27;45227;-81
2021/06/27 05:15:23;;;;;;;;;21.00;21.00;;;;;18.53;76.81;100794.44;5099388;27;46496;-80
2021/06/27 05:17:49;;;;;;;;;23.67;23.67;;;;;18.51;76.92;100791.97;5099590;27;45665;-81
2021/06/27 05:20:14;;;;;;;;;28.00;26.33;;;;;18.51;76.92;100791.13;5099837;27;45224;-80
2021/06/27 05:22:40;;;;;;;;;19.67;19.67;;;;;18.48;76.89;100787.03;5099680;27;45592;-81
2021/06/27 05:25:07;;;;;;;;;21.00;20.00;;;;;18.48;76.99;100797.78;5100523;27;45900;-81
2021/06/27 05:27:32;;;;;;;;;21.00;21.00;;;;;18.50;77.26;100809.13;5103165;27;45358;-81
2021/06/27 05:29:57;;;;;;;;;25.67;25.67;;;;;18.48;77.30;100805.88;5097339;27;45348;-81
2021/06/27 05:32:23;;;;;;;;;19.00;19.00;;;;;18.55;77.59;100805.75;5082652;27;45411;-80
2021/06/27 05:34:48;;;;;;;;;23.67;22.67;;;;;18.60;77.64;100802.41;5082523;27;45468;-80
2021/06/27 05:37:14;;;;;;;;;25.67;25.00;;;;;18.62;77.07;100786.84;5082086;27;45391;-81
2021/06/27 05:39:39;;;;;;;;;21.67;21.33;;;;;18.55;77.04;100770.78;5082511;27;45306;-82
2021/06/27 05:42:05;;;;;;;;;28.00;25.33;;;;;18.68;77.39;100778.69;5082412;27;45526;-81
2021/06/27 05:44:31;;;;;;;;;23.00;23.00;;;;;18.67;77.41;100768.13;5082489;27;45382;-80
2021/06/27 05:46:56;;;;;;;;;23.67;21.67;;;;;18.71;77.70;100766.66;5082128;27;45236;-81
2021/06/27 05:49:22;;;;;;;;;23.00;23.00;;;;;18.74;77.53;100763.47;5082489;27;45351;-82
2021/06/27 05:51:47;;;;;;;;;26.00;25.67;;;;;18.72;76.94;100760.22;5071475;28;46968;-80
2021/06/27 05:54:13;;;;;;;;;23.33;21.67;;;;;18.70;77.08;100769.56;5077449;28;46413;-79
2021/06/27 05:56:38;;;;;;;;;28.33;23.67;;;;;18.67;77.37;100781.59;5068696;28;45472;-82
2021/06/27 05:59:05;;;;;;;;;25.33;23.67;;;;;18.68;77.57;100783.25;5070744;27;45389;-84
2021/06/27 06:01:31;;;;;;;;;24.33;24.00;;;;;18.72;77.47;100797.91;5080383;28;45394;-82
2021/06/27 06:03:56;;;;;;;;;25.67;25.00;;;;;18.76;77.72;100792.88;5074220;28;46392;-83
2021/06/27 06:06:22;;;;;;;;;22.00;21.67;;;;;18.82;77.61;100791.97;5063978;28;45318;-83
2021/06/27 06:08:47;;;;;;;;;26.33;24.00;;;;;18.86;77.04;100787.75;5061839;28;45618;-81
2021/06/27 06:11:14;;;;;;;;;23.00;23.00;;;;;18.92;77.28;100794.13;5061910;28;45322;-81
2021/06/27 06:13:41;;;;;;;;;21.67;21.67;;;;;18.94;77.06;100805.47;5061531;28;45192;-81
2021/06/27 06:16:07;;;;;;;;;26.67;25.00;;;;;18.96;77.43;100808.75;5060462;28;45323;-78
2021/06/27 06:18:34;;;;;;;;;22.00;21.33;;;;;18.96;77.43;100797.16;5062157;28;45271;-79
2021/06/27 06:20:59;;;;;;;;;24.33;22.33;;;;;18.99;77.30;100785.94;5061676;28;45455;-78
2021/06/27 06:23:25;;;;;;;;;24.00;23.33;;;;;18.97;77.36;100780.78;5061407;28;45884;-78
2021/06/27 06:25:52;;;;;;;;;24.33;24.33;;;;;19.02;77.08;100790.84;5061342;28;45316;-78
2021/06/27 06:28:17;;;;;;;;;27.33;26.33;;;;;19.03;77.38;100804.09;5061435;28;45293;-78
2021/06/27 06:30:43;;;;;;;;;23.00;21.67;;;;;19.03;77.08;100798.72;5074364;27;45503;-80
2021/06/27 06:33:10;;;;;;;;;21.33;19.67;;;;;19.05;77.06;100807.38;5059723;28;47250;-78
2021/06/27 06:35:40;;;;;;;;;24.33;20.67;;;;;19.03;77.33;100796.00;5061301;28;45291;-78
2021/06/27 06:38:06;;;;;;;;;21.67;21.00;;;;;19.08;76.92;100806.13;5058971;28;45397;-78
2021/06/27 06:40:32;;;;;;;;;24.33;23.33;;;;;19.08;77.21;100791.84;5061049;28;45355;-78
2021/06/27 06:42:58;;;;;;;;;22.67;22.67;;;;;19.11;77.17;100792.22;5068242;28;45846;-80
2021/06/27 06:45:24;;;;;;;;;22.00;22.00;;;;;19.15;77.06;100797.94;5069663;27;45391;-80
2021/06/27 06:47:49;;;;;;;;;21.33;21.33;;;;;19.18;76.92;100795.63;5071557;28;45452;-81
2021/06/27 06:50:14;;;;;;;;;29.33;23.67;;;;;19.24;77.36;100795.75;5080969;27;45323;-81
2021/06/27 06:52:40;;;;;;;;;22.33;22.33;;;;;19.35;76.89;100802.19;5081221;27;45251;-81
2021/06/27 06:55:06;;;;;;;;;23.33;21.67;;;;;19.37;76.92;100800.09;5079760;28;45294;-79
2021/06/27 06:57:31;;;;;;;;;23.33;23.00;;;;;19.36;76.61;100785.00;5081390;28;45302;-78
2021/06/27 06:59:56;;;;;;;;;22.33;21.00;;;;;19.37;76.28;100781.25;5073918;27;45905;-79
2021/06/27 07:02:21;;;;;;;;;22.67;22.67;;;;;19.42;76.21;100790.28;5076618;28;47918;-81
2021/06/27 07:04:47;;;;;;;;;20.67;19.67;;;;;19.42;76.23;100778.66;5062015;27;45176;-80
2021/06/27 07:07:12;;;;;;;;;24.00;21.00;;;;;19.45;75.69;100782.78;5060988;28;45363;-80
2021/06/27 07:09:37;;;;;;;;;19.33;18.33;;;;;19.49;75.68;100778.56;5079219;28;45325;-81
2021/06/27 07:12:03;;;;;;;;;23.33;22.00;;;;;19.51;75.73;100784.53;5078311;27;45197;-81
2021/06/27 07:14:29;;;;;;;;;23.67;21.67;;;;;19.50;76.00;100781.03;5071921;27;45243;-80
2021/06/27 07:16:54;;;;;;;;;20.33;18.00;;;;;19.50;76.61;100793.66;5067506;27;45534;-79
2021/06/27 07:19:19;;;;;;;;;20.00;19.67;;;;;19.41;76.29;100790.50;5059774;28;47558;-78
2021/06/27 07:21:45;;;;;;;;;22.67;22.00;;;;;19.50;76.44;100799.91;5060613;28;45467;-78
2021/06/27 07:24:11;;;;;;;;;23.00;19.00;;;;;19.53;76.58;100794.03;5060468;28;45425;-77
2021/06/27 07:26:36;;;;;;;;;29.33;29.33;;;;;19.60;76.89;100793.91;5075982;28;45336;-79
2021/06/27 07:29:01;;;;;;;;;21.33;19.67;;;;;19.67;76.71;100796.50;5058325;28;45645;-79
2021/06/27 07:31:27;;;;;;;;;23.67;23.00;;;;;19.73;76.46;100800.13;5093880;27;45328;-80
2021/06/27 07:33:52;;;;;;;;;23.00;21.33;;;;;19.76;76.01;100805.88;5069690;27;45771;-78
2021/06/27 07:36:17;;;;;;;;;19.67;18.67;;;;;19.76;75.83;100800.50;5073403;28;45373;-80
2021/06/27 07:38:43;;;;;;;;;18.67;18.00;;;;;19.73;75.73;100800.97;5059530;28;45536;-80
2021/06/27 07:41:08;;;;;;;;;19.00;18.67;;;;;19.75;75.67;100796.16;5061322;28;46810;-78
2021/06/27 07:43:34;;;;;;;;;22.67;20.33;;;;;19.71;76.13;100799.53;5060500;28;45238;-77
2021/06/27 07:46:00;;;;;;;;;18.33;17.00;;;;;19.69;76.21;100794.38;5060303;28;45268;-77
2021/06/27 07:48:25;;;;;;;;;18.67;18.67;;;;;19.63;75.61;100777.28;5060006;28;45273;-77
2021/06/27 07:50:51;;;;;;;;;22.33;19.33;;;;;19.64;76.06;100778.09;5060156;28;45312;-77
2021/06/27 07:53:16;;;;;;;;;22.33;21.67;;;;;19.63;76.28;100781.88;5060148;28;45238;-77
2021/06/27 07:55:42;;;;;;;;;16.67;15.67;;;;;19.58;75.99;100787.13;5060106;28;45234;-77
2021/06/27 07:58:07;;;;;;;;;23.67;22.33;;;;;19.53;76.38;100780.56;5060022;28;45518;-77
2021/06/27 08:00:32;;;;;;;;;22.33;19.33;;;;;19.54;76.72;100787.59;5060290;28;46323;-79
2021/06/27 08:02:58;;;;;;;;;21.00;21.00;;;;;19.54;76.44;100789.44;5061916;28;45262;-79
2021/06/27 08:05:24;;;;;;;;;20.00;19.33;;;;;19.55;76.44;100788.41;5061203;28;45367;-79
2021/06/27 08:07:50;;;;;;;;;20.67;20.67;;;;;19.57;76.46;100793.56;5061837;28;45360;-79
2021/06/27 08:10:15;;;;;;;;;19.00;19.00;;;;;19.52;76.89;100795.06;5059401;28;47009;-79
2021/06/27 08:12:41;;;;;;;;;21.00;21.00;;;;;19.59;76.48;100800.38;5063058;28;45310;-80
2021/06/27 08:15:10;;;;;;;;;22.33;22.00;;;;;19.64;76.59;100796.97;5060008;28;45303;-77
2021/06/27 08:17:36;;;;;;;;;25.00;22.67;;;;;19.74;76.24;100799.06;5060040;28;46210;-77
2021/06/27 08:20:04;;;;;;;;;17.67;17.67;;;;;19.83;76.16;100803.06;5059604;28;46551;-77
2021/06/27 08:22:30;;;;;;;;;22.33;21.67;;;;;19.92;76.31;100798.13;5059695;28;45282;-76
2021/06/27 08:24:58;;;;;;;;;23.33;20.33;;;;;19.99;75.93;100803.41;5059763;28;45401;-79
2021/06/27 08:27:30;;;;;;;;;21.00;19.00;;;;;19.98;75.24;100790.97;5064133;28;45500;-78
2021/06/27 08:29:58;;;;;;;;;18.33;17.67;;;;;20.15;75.07;100810.00;5074242;27;45479;-79
2021/06/27 08:32:23;;;;;;;;;17.00;17.00;;;;;20.23;74.47;100803.41;5101524;27;45905;-81
2021/06/27 08:34:55;;;;;;;;;20.67;19.33;;;;;20.34;74.40;100807.13;5101372;27;45361;-79
2021/06/27 08:37:26;;;;;;;;;19.67;19.00;;;;;20.41;73.84;100807.84;5101117;27;45443;-78
2021/06/27 08:39:58;;;;;;;;;23.00;22.00;;;;;20.44;74.24;100802.75;5100150;27;45214;-78
2021/06/27 08:42:27;;;;;;;;;17.67;17.33;;;;;20.49;74.21;100803.91;5086788;27;45382;-80
2021/06/27 08:44:54;;;;;;;;;20.67;20.67;;;;;20.58;74.04;100807.06;5080271;28;45147;-80
2021/06/27 08:47:21;;;;;;;;;19.00;18.33;;;;;20.63;73.89;100812.56;5097197;27;46662;-80
2021/06/27 08:49:51;;;;;;;;;15.00;14.33;;;;;20.64;73.46;100806.09;5079826;28;47112;-80
2021/06/27 08:52:20;;;;;;;;;22.67;21.33;;;;;20.69;73.71;100806.22;5081414;27;45263;-80
2021/06/27 08:54:48;;;;;;;;;19.00;18.33;;;;;20.71;74.05;100808.66;5078418;28;45370;-80
2021/06/27 08:57:15;;;;;;;;;20.33;19.67;;;;;20.72;74.03;100808.44;5096298;27;46194;-79
2021/06/27 08:59:41;;;;;;;;;20.67;20.00;;;;;20.73;73.71;100801.97;5080035;27;45281;-78
2021/06/27 09:02:08;;;;;;;;;17.33;16.00;;;;;20.81;73.73;100808.84;5084352;27;45156;-78
2021/06/27 09:04:39;;;;;;;;;19.67;18.67;;;;;20.80;72.98;100805.31;5083532;27;45307;-78
2021/06/27 09:07:26;;;;;;;;;19.67;17.67;;;;;20.84;73.14;100813.78;5084061;27;45498;-78
2021/06/27 09:10:42;;;;;;;;;;;;;;;;;;;;;
2021/06/27 09:14:03;;;;;;;;;20.00;19.67;;;;;20.85;72.76;100820.81;5090592;28;71544;-80
2021/06/27 09:17:12;;;;;;;;;21.00;19.33;;;;;20.68;73.17;100789.19;5066107;28;45430;-82
2021/06/27 09:19:54;;;;;;;;;20.67;20.00;;;;;20.92;73.46;100816.09;5081067;27;45355;-82
2021/06/27 09:22:25;;;;;;;;;19.67;19.67;;;;;20.94;72.41;100807.75;5082484;27;45725;-77
2021/06/27 09:24:52;;;;;;;;;19.33;19.33;;;;;20.93;72.58;100811.53;5082216;27;45420;-77
2021/06/27 09:27:24;;;;;;;;;19.33;19.33;;;;;21.01;72.68;100815.72;5082857;27;45483;-77
2021/06/27 09:29:51;;;;;;;;;21.00;20.33;;;;;21.09;73.02;100820.72;5086899;27;45308;-77
2021/06/27 09:32:22;;;;;;;;;21.33;20.67;;;;;21.17;72.92;100814.13;5102847;27;46156;-77
2021/06/27 09:34:48;;;;;;;;;23.33;23.00;;;;;21.31;72.74;100817.31;5102833;27;45282;-77
2021/06/27 09:37:15;;;;;;;;;24.00;22.00;;;;;21.37;72.67;100826.34;5103071;27;45357;-77
2021/06/27 09:40:01;;;;;;;;;20.67;20.33;;;;;21.44;72.55;100825.13;5102771;27;45524;-77
2021/06/27 09:42:27;;;;;;;;;21.00;21.00;;;;;21.52;72.73;100829.28;5101515;27;48503;-77
2021/06/27 09:45:05;;;;;;;;;21.67;21.67;;;;;21.59;72.96;100829.13;5102965;27;45431;-77
2021/06/27 09:47:32;;;;;;;;;21.33;21.00;;;;;21.73;72.06;100836.91;5101614;27;45319;-77
2021/06/27 09:49:57;;;;;;;;;21.00;20.00;;;;;21.70;72.65;100809.28;5102854;27;45244;-77
2021/06/27 09:52:37;;;;;;;;;19.33;18.67;;;;;21.89;71.51;100837.97;5102606;27;45237;-77
2021/06/27 09:55:13;;;;;;;;;17.67;17.00;;;;;21.93;72.15;100837.22;5102726;27;45271;-77
2021/06/27 09:57:39;;;;;;;;;19.00;19.00;;;;;21.99;72.97;100832.69;5102665;27;45323;-77
2021/06/27 10:00:29;;;;;;;;;19.00;18.67;;;;;22.13;71.87;100841.28;5102828;27;45217;-78
2021/06/27 10:03:08;;;;;;;;;22.00;21.00;;;;;22.18;71.79;100846.75;5102795;27;46087;-83
2021/06/27 10:09:15;;;;;;;;;22.67;19.33;;;;;22.07;72.10;100835.00;5103551;27;45316;-83
2021/06/27 10:12:00;;;;;;;;;22.00;20.33;;;;;22.15;71.71;100852.66;5101239;27;45406;-83
2021/06/27 10:14:28;;;;;;;;;20.67;20.00;;;;;22.08;71.61;100849.31;5102205;27;46466;-82
2021/06/27 10:16:55;;;;;;;;;23.67;23.67;;;;;22.03;71.93;100868.22;5102452;27;45301;-80
2021/06/27 10:19:21;;;;;;;;;21.00;21.00;;;;;21.93;71.76;100858.03;5101593;27;45343;-79
2021/06/27 10:21:54;;;;;;;;;21.00;20.67;;;;;21.86;72.27;100860.09;5103265;27;45293;-79
2021/06/27 10:24:33;;;;;;;;;22.67;21.00;;;;;21.78;71.75;100869.44;5101974;27;47226;-79
2021/06/27 10:30:21;;;;;;;;;23.00;21.33;;;;;21.60;72.07;100863.19;5073140;27;45474;-79
2021/06/27 10:32:46;;;;;;;;;27.00;27.00;;;;;21.63;72.32;100872.69;5081654;28;45193;-80
2021/06/27 10:35:14;;;;;;;;;21.33;21.33;;;;;21.62;73.04;100876.47;5079481;27;45356;-84
2021/06/27 10:37:43;;;;;;;;;25.00;22.67;;;;;21.57;72.87;100869.09;5080974;27;45307;-83
2021/06/27 10:40:14;;;;;;;;;27.67;26.67;;;;;21.59;72.23;100866.16;5079847;28;45361;-82
2021/06/27 10:42:48;;;;;;;;;24.67;22.00;;;;;21.65;73.16;100873.28;5081517;27;45439;-82
2021/06/27 10:45:15;;;;;;;;;27.33;26.33;;;;;21.66;73.04;100878.44;5070591;28;47126;-85
2021/06/27 10:47:41;;;;;;;;;24.67;24.67;;;;;21.68;73.22;100884.44;5070543;28;45388;-80
2021/06/27 10:50:10;;;;;;;;;24.00;23.00;;;;;21.76;73.00;100879.72;5075881;28;45463;-78
2021/06/27 10:52:51;;;;;;;;;28.67;22.67;;;;;21.84;72.59;100873.06;5060945;28;45287;-78
2021/06/27 10:55:37;;;;;;;;;24.33;24.33;;;;;21.87;72.32;100875.25;5060705;28;47351;-82
2021/06/27 10:58:11;;;;;;;;;26.33;26.33;;;;;21.92;72.45;100881.59;5060096;27;45520;-81
2021/06/27 11:01:00;;;;;;;;;25.33;25.33;;;;;22.00;72.79;100876.81;5061130;28;45307;-80
2021/06/27 11:03:42;;;;;;;;;24.00;22.33;;;;;22.05;72.15;100887.69;5076291;28;45961;-80
2021/06/27 11:06:17;;;;;;;;;21.33;21.00;;;;;22.04;71.89;100886.91;5060462;28;46203;-81
2021/06/27 11:08:45;;;;;;;;;20.67;18.67;;;;;22.05;72.02;100879.59;5062221;28;45738;-80
2021/06/27 11:11:16;;;;;;;;;23.67;21.33;;;;;22.01;72.11;100881.16;5062518;27;45394;-80
2021/06/27 11:13:44;;;;;;;;;23.33;23.33;;;;;22.03;72.41;100887.16;5071675;28;46316;-84
2021/06/27 11:16:12;;;;;;;;;23.33;23.33;;;;;22.03;71.67;100887.16;5094587;27;47348;-84
2021/06/27 11:18:47;;;;;;;;;23.00;21.33;;;;;22.06;71.78;100883.94;5079672;27;45446;-85
2021/06/27 11:21:15;;;;;;;;;25.33;25.33;;;;;22.16;72.28;100889.50;5079529;27;45267;-83